Accueil
METAR-TAF:

METAR-TAF

Aéroports :

Aéroport de La Rochelle - île de Ré

La Rochelle, France

latitude: 46-10-45N, longitude: 1-11-43W, altitude: 23 m

Observation

Le bulletin a été fait il y a 26 minutes, à 21:30 UTC
Vent 8 kt de nord/nord-est
Température 4°C
Humidité 75%
Pression 1022 hPa
Visibilité: 9000 m

METAR: LFBH 082130Z AUTO 03008KT 9000 NSC 04/M00 Q1022 NOSIG

Heure: 22:56 (21:56 UTC)

Prévision

Le bulletin a été fait il y a 4 heures et 56 minutes, à 17:00 UTC
Prévision valable du 08 à 18 UTC au 09 à 18 UTC
Vent 10 kt de nord
Visibilité 10 km ou plus
pas de nuages en-dessous de 1500 mètres et pas de cumulonimbus.
Evoluant progressivement
du 09 à 15 UTC au 09 à 17 UTC
Vent 10 kt de nord-ouest

TAF: LFBH 081700Z 0818/0918 01010KT CAVOK BECMG 0915/0917 31010KT

Observations et prévisions météorologiques de plus de 4000 aéroports (messages METAR et TAF).

Les stations disponibles sont représentées par des disques jaunes et rouges sur la carte.

Passer la souris dessus pour voir le nom de la station.

Cliquer dessus pour voir les observations et prévisions météorologiques.

Pour changer de carte: cliquez sur les boutons verts avec une croix noire pour zoomer, sur le bouton vert avec un tiret pour effectuer un zoom arrière, ou sur les flèches vertes pour les cartes adjacentes.


METAR-TAF: